createdAt,value
2022-07-25T00:02:24.133Z,56.03
2022-07-25T00:04:52.383Z,55.66
2022-07-25T00:07:24.936Z,55.48
2022-07-25T00:09:53.134Z,55.98
2022-07-25T00:12:22.140Z,55.58
2022-07-25T00:14:50.256Z,55.61
2022-07-25T00:17:18.310Z,55.42
2022-07-25T00:19:46.415Z,55.92
2022-07-25T00:22:14.428Z,56.28
2022-07-25T00:24:43.904Z,56.65
2022-07-25T00:27:11.950Z,56.29
2022-07-25T00:29:40.367Z,56.53
2022-07-25T00:32:08.661Z,56.29
2022-07-25T00:34:36.770Z,55.85
2022-07-25T00:37:04.851Z,55.72
2022-07-25T00:39:33.077Z,56.55
2022-07-25T00:42:05.997Z,56.50
2022-07-25T00:44:34.935Z,56.46
2022-07-25T00:47:03.354Z,56.37
2022-07-25T00:49:31.575Z,56.59
2022-07-25T00:51:59.880Z,56.17
2022-07-25T00:54:28.010Z,56.85
2022-07-25T00:56:56.372Z,56.92
2022-07-25T00:59:26.305Z,57.22
2022-07-25T01:01:54.669Z,57.05
2022-07-25T01:04:22.900Z,56.73
2022-07-25T01:06:51.160Z,57.11
2022-07-25T01:09:21.404Z,57.17
2022-07-25T01:11:49.572Z,57.33
2022-07-25T01:14:17.700Z,57.30
2022-07-25T01:16:47.129Z,56.66
2022-07-25T01:19:17.029Z,57.39
2022-07-25T01:21:46.573Z,57.35
2022-07-25T01:24:14.789Z,57.48
2022-07-25T01:26:42.994Z,57.95
2022-07-25T01:29:11.063Z,57.46
2022-07-25T01:31:39.286Z,57.22
2022-07-25T01:34:07.764Z,57.71
2022-07-25T01:36:36.042Z,57.27
2022-07-25T01:39:05.662Z,57.75
2022-07-25T01:41:33.784Z,57.66
2022-07-25T01:44:01.937Z,57.91
2022-07-25T01:46:30.149Z,57.90
2022-07-25T01:48:58.541Z,58.06
2022-07-25T01:51:26.677Z,58.28
2022-07-25T01:53:55.454Z,58.39
2022-07-25T01:56:24.932Z,58.35
2022-07-25T01:58:53.047Z,58.21
2022-07-25T02:03:50.518Z,58.06
2022-07-25T02:06:19.634Z,57.76
2022-07-25T02:08:47.921Z,57.71
2022-07-25T02:11:16.273Z,57.96
2022-07-25T02:13:45.738Z,58.07
2022-07-25T02:16:14.382Z,57.91
2022-07-25T02:18:42.554Z,58.26
2022-07-25T02:21:13.769Z,57.88
2022-07-25T02:23:43.399Z,57.93
2022-07-25T02:26:12.618Z,58.00
2022-07-25T02:28:41.879Z,58.08
2022-07-25T02:31:11.452Z,58.28
2022-07-25T02:33:39.667Z,57.55
2022-07-25T02:36:09.368Z,57.59
2022-07-25T02:38:39.117Z,57.23
2022-07-25T02:41:07.926Z,56.99
2022-07-25T02:43:35.994Z,57.17
2022-07-25T02:46:04.222Z,56.77
2022-07-25T02:48:33.912Z,57.01
2022-07-25T02:51:02.037Z,57.37
2022-07-25T02:53:55.492Z,57.55
2022-07-25T02:56:18.721Z,57.81
2022-07-25T02:58:49.488Z,57.77
2022-07-25T03:01:17.671Z,58.17
2022-07-25T03:03:47.288Z,58.17
2022-07-25T03:06:15.666Z,58.12
2022-07-25T03:08:43.745Z,58.08
2022-07-25T03:11:12.921Z,58.14
2022-07-25T03:13:41.121Z,58.55
2022-07-25T03:16:09.912Z,58.31
2022-07-25T03:18:38.165Z,58.24
2022-07-25T03:21:08.413Z,58.36
2022-07-25T03:23:36.522Z,58.48
2022-07-25T03:26:04.693Z,58.79
2022-07-25T03:28:32.835Z,58.84
2022-07-25T03:31:00.952Z,58.60
2022-07-25T03:33:29.264Z,58.65
2022-07-25T03:35:57.477Z,58.73
2022-07-25T03:38:26.911Z,59.05
2022-07-25T03:40:55.119Z,58.91
2022-07-25T03:43:23.196Z,59.35
2022-07-25T03:45:51.302Z,58.96
2022-07-25T03:48:19.455Z,58.88
2022-07-25T03:50:47.536Z,59.04
2022-07-25T03:53:20.067Z,59.32
2022-07-25T03:55:49.549Z,59.90
2022-07-25T03:58:17.743Z,59.40
2022-07-25T04:00:47.891Z,59.15
2022-07-25T04:03:16.288Z,59.38
2022-07-25T04:05:47.583Z,59.08
2022-07-25T04:08:16.072Z,59.15
2022-07-25T04:10:44.133Z,59.19
2022-07-25T04:13:13.549Z,58.80
2022-07-25T04:15:41.620Z,59.21
2022-07-25T04:18:10.163Z,58.89
2022-07-25T04:20:44.643Z,58.91
2022-07-25T04:23:12.746Z,58.41
2022-07-25T04:25:41.050Z,58.91
2022-07-25T04:28:09.148Z,59.14
2022-07-25T04:30:38.729Z,58.57
2022-07-25T04:33:06.790Z,59.00
2022-07-25T04:35:34.882Z,59.18
2022-07-25T04:38:03.356Z,58.73
2022-07-25T04:40:31.749Z,58.76
2022-07-25T04:42:59.884Z,58.31
2022-07-25T04:45:28.356Z,58.52
2022-07-25T04:47:57.949Z,58.40
2022-07-25T04:50:26.234Z,58.39
2022-07-25T04:52:54.393Z,57.88
2022-07-25T04:55:23.090Z,57.86
2022-07-25T04:57:51.254Z,58.03
2022-07-25T05:00:19.836Z,57.51
2022-07-25T05:02:47.892Z,57.16
2022-07-25T05:05:21.410Z,57.24
2022-07-25T05:07:50.673Z,57.04
2022-07-25T05:10:19.042Z,57.15
2022-07-25T05:12:47.148Z,57.51
2022-07-25T05:15:15.320Z,56.93
2022-07-25T05:17:43.994Z,57.24
2022-07-25T05:20:13.690Z,57.18
2022-07-25T05:22:43.837Z,56.60
2022-07-25T05:25:12.904Z,56.49
2022-07-25T05:27:42.274Z,56.59
2022-07-25T05:30:12.781Z,56.95
2022-07-25T05:32:42.065Z,56.38
2022-07-25T05:35:11.698Z,55.92
2022-07-25T05:37:40.069Z,56.63
2022-07-25T05:40:10.291Z,55.60
2022-07-25T05:42:38.513Z,55.82
2022-07-25T05:45:08.283Z,55.34
2022-07-25T05:47:36.755Z,55.50
2022-07-25T05:50:05.903Z,55.63
2022-07-25T05:52:34.032Z,55.00
2022-07-25T05:55:02.084Z,55.24
2022-07-25T05:57:31.916Z,55.52
2022-07-25T05:59:59.971Z,54.92
2022-07-25T06:02:28.171Z,55.12
2022-07-25T06:04:56.353Z,55.07
2022-07-25T06:07:24.469Z,54.70
2022-07-25T06:09:52.588Z,54.99
2022-07-25T06:12:20.689Z,54.75
2022-07-25T06:14:54.612Z,54.67
2022-07-25T06:17:22.684Z,54.28
2022-07-25T06:19:50.809Z,54.11
2022-07-25T06:22:19.622Z,54.22
2022-07-25T06:24:47.688Z,53.87
2022-07-25T06:27:20.559Z,53.34
2022-07-25T06:29:49.897Z,53.19
2022-07-25T06:32:19.579Z,53.34
2022-07-25T06:34:47.673Z,53.44
2022-07-25T06:37:16.107Z,53.38
2022-07-25T06:39:46.062Z,53.46
2022-07-25T06:42:14.765Z,53.11
2022-07-25T06:44:43.178Z,52.96
2022-07-25T06:47:13.490Z,52.94
2022-07-25T06:49:43.727Z,52.83
2022-07-25T06:52:11.902Z,52.54
2022-07-25T06:54:40.487Z,53.30
2022-07-25T06:57:09.011Z,53.20
2022-07-25T06:59:37.163Z,52.18
2022-07-25T07:02:05.313Z,51.17
2022-07-25T07:04:33.410Z,51.68
2022-07-25T07:07:02.949Z,51.77
2022-07-25T07:09:31.118Z,50.91
2022-07-25T07:11:59.245Z,50.60
2022-07-25T07:14:28.120Z,50.32
2022-07-25T07:16:58.268Z,49.58
2022-07-25T07:19:26.335Z,49.65
2022-07-25T07:21:54.446Z,48.96
2022-07-25T07:24:25.104Z,48.85
2022-07-25T07:26:53.871Z,48.47
2022-07-25T07:29:22.387Z,48.79
2022-07-25T07:31:50.742Z,48.48
2022-07-25T07:34:19.100Z,48.14
2022-07-25T07:36:47.371Z,48.07
2022-07-25T07:39:16.609Z,47.50
2022-07-25T07:41:46.263Z,47.84
2022-07-25T07:44:14.478Z,47.77
2022-07-25T07:46:42.636Z,47.16
2022-07-25T07:49:11.502Z,47.53
2022-07-25T07:51:40.358Z,47.20
2022-07-25T07:54:28.277Z,47.31
2022-07-25T07:56:58.714Z,46.73
2022-07-25T07:59:26.842Z,47.17
2022-07-25T08:01:54.949Z,46.86
2022-07-25T08:04:23.093Z,45.42
2022-07-25T08:06:53.079Z,45.60
2022-07-25T08:09:21.253Z,44.28
2022-07-25T08:11:49.377Z,44.42
2022-07-25T08:14:19.044Z,43.12
2022-07-25T08:16:47.245Z,43.41
2022-07-25T08:19:15.293Z,43.80
2022-07-25T08:21:43.609Z,43.36
2022-07-25T08:24:15.515Z,42.90
2022-07-25T08:26:43.662Z,43.20
2022-07-25T08:29:19.157Z,43.29
2022-07-25T08:31:50.140Z,41.86
2022-07-25T08:34:19.493Z,42.24
2022-07-25T08:36:47.746Z,42.31
2022-07-25T08:39:15.905Z,41.70
2022-07-25T08:41:44.743Z,41.59
2022-07-25T08:44:15.167Z,40.77
2022-07-25T08:46:44.298Z,40.43
2022-07-25T08:49:13.975Z,39.99
2022-07-25T08:51:42.486Z,39.68
2022-07-25T08:54:11.668Z,38.85
2022-07-25T08:56:42.227Z,39.61
2022-07-25T08:59:10.772Z,38.85
2022-07-25T09:01:41.478Z,37.77
2022-07-25T09:04:10.888Z,38.03
2022-07-25T09:06:51.682Z,38.30
2022-07-25T09:09:20.033Z,37.79
2022-07-25T09:11:48.126Z,37.72
2022-07-25T09:14:16.216Z,38.42
2022-07-25T09:16:46.314Z,36.54
2022-07-25T09:19:18.075Z,37.68
2022-07-25T09:22:01.473Z,36.17
2022-07-25T09:24:30.290Z,35.93
2022-07-25T09:27:02.003Z,34.41
2022-07-25T09:29:34.969Z,35.03
2022-07-25T09:32:14.847Z,35.17
2022-07-25T09:34:45.787Z,33.65
2022-07-25T09:37:18.981Z,35.48
2022-07-25T09:39:49.435Z,34.74
2022-07-25T09:42:26.415Z,33.86
2022-07-25T09:45:06.386Z,33.21
2022-07-25T09:47:37.759Z,32.53
2022-07-25T09:50:08.523Z,30.99
2022-07-25T09:52:39.293Z,31.42
2022-07-25T09:55:10.139Z,30.93
2022-07-25T09:57:38.977Z,32.19
2022-07-25T10:00:10.136Z,32.04
2022-07-25T10:02:49.774Z,31.97
2022-07-25T10:05:32.567Z,32.24
2022-07-25T10:08:06.759Z,31.17
2022-07-25T10:10:41.269Z,31.38
2022-07-25T10:13:14.034Z,30.69
2022-07-25T10:15:49.085Z,30.17
2022-07-25T10:18:19.926Z,31.17
2022-07-25T10:20:51.032Z,30.37
2022-07-25T10:23:23.112Z,31.18
2022-07-25T10:26:03.885Z,30.10
2022-07-25T10:28:42.549Z,30.41
2022-07-25T10:31:22.042Z,30.84
2022-07-25T10:33:55.154Z,30.92
2022-07-25T10:36:24.507Z,31.13
2022-07-25T10:38:59.056Z,31.13
2022-07-25T10:41:28.847Z,31.45
2022-07-25T10:44:02.227Z,30.82
2022-07-25T10:46:32.493Z,29.87
2022-07-25T10:49:04.810Z,31.00
2022-07-25T10:51:40.947Z,30.70
2022-07-25T10:54:19.348Z,30.88
2022-07-25T10:56:57.488Z,30.88
2022-07-25T10:59:35.157Z,30.53
2022-07-25T11:02:05.537Z,31.71
2022-07-25T11:04:34.752Z,29.89
2022-07-25T11:07:10.540Z,31.21
2022-07-25T11:09:41.140Z,30.56
2022-07-25T11:12:10.785Z,30.10
2022-07-25T11:14:42.594Z,30.16
2022-07-25T11:17:15.729Z,30.72
2022-07-25T11:19:45.491Z,33.01
2022-07-25T11:22:14.184Z,31.25
2022-07-25T11:24:46.702Z,29.93
2022-07-25T11:27:24.452Z,28.78
2022-07-25T11:29:53.277Z,26.64
2022-07-25T11:32:21.876Z,27.86
2022-07-25T11:34:53.875Z,27.40
2022-07-25T11:37:22.816Z,28.46
2022-07-25T11:39:54.301Z,29.00
2022-07-25T11:42:22.915Z,28.71
2022-07-25T11:44:54.410Z,27.47
2022-07-25T11:47:30.758Z,27.63
2022-07-25T11:50:01.708Z,27.67
2022-07-25T11:52:32.973Z,27.57
2022-07-25T11:55:05.414Z,28.17
2022-07-25T11:57:35.592Z,28.20
2022-07-25T12:00:29.566Z,26.72
2022-07-25T12:03:09.409Z,29.43
2022-07-25T12:05:37.922Z,30.29
2022-07-25T12:08:12.390Z,29.84
2022-07-25T12:10:43.424Z,29.32
2022-07-25T12:13:25.455Z,30.72
2022-07-25T12:15:54.859Z,31.45
2022-07-25T12:18:23.061Z,32.52
2022-07-25T12:20:51.191Z,31.59
2022-07-25T12:23:21.649Z,31.68
2022-07-25T12:25:51.663Z,31.62
2022-07-25T12:28:19.826Z,32.88
2022-07-25T12:30:53.016Z,32.57
2022-07-25T12:33:24.248Z,32.87
2022-07-25T12:35:52.367Z,32.55
2022-07-25T12:38:20.693Z,31.53
2022-07-25T12:40:50.504Z,31.65
2022-07-25T12:43:22.683Z,31.53
2022-07-25T12:45:50.869Z,30.85
2022-07-25T12:48:18.989Z,31.93
2022-07-25T12:50:47.235Z,32.75
2022-07-25T12:53:15.364Z,31.96
2022-07-25T12:55:43.550Z,31.63
2022-07-25T12:58:15.903Z,32.25
2022-07-25T13:00:44.109Z,31.78
2022-07-25T13:03:15.442Z,32.87
2022-07-25T13:05:43.647Z,31.36
2022-07-25T13:08:11.711Z,30.50
2022-07-25T13:10:39.958Z,29.72
2022-07-25T13:13:08.135Z,29.61
2022-07-25T13:15:38.115Z,29.92
2022-07-25T13:18:06.484Z,29.52
2022-07-25T13:20:37.282Z,29.42
2022-07-25T13:23:05.550Z,29.26
2022-07-25T13:25:34.824Z,28.54
2022-07-25T13:28:04.047Z,29.25
2022-07-25T13:30:40.340Z,29.37
2022-07-25T13:33:09.990Z,28.34
2022-07-25T13:35:39.517Z,28.81
2022-07-25T13:38:10.938Z,28.87
2022-07-25T13:40:41.949Z,29.66
2022-07-25T13:43:12.489Z,30.28
2022-07-25T13:45:43.173Z,29.66
2022-07-25T13:48:28.865Z,30.53
2022-07-25T13:50:58.003Z,30.51
2022-07-25T13:53:29.961Z,31.84
2022-07-25T13:56:00.043Z,32.13
2022-07-25T13:58:28.741Z,32.59
2022-07-25T14:00:58.363Z,33.56
2022-07-25T14:03:26.529Z,35.90
2022-07-25T14:05:54.727Z,36.37
2022-07-25T14:08:26.271Z,35.80
2022-07-25T14:10:54.576Z,35.97
2022-07-25T14:13:22.691Z,35.47
2022-07-25T14:16:19.881Z,35.95
2022-07-25T14:18:48.104Z,35.53
2022-07-25T14:21:16.221Z,35.86
2022-07-25T14:23:44.328Z,35.84
2022-07-25T14:26:12.497Z,35.99
2022-07-25T14:28:40.584Z,35.25
2022-07-25T14:31:08.959Z,35.54
2022-07-25T14:33:40.111Z,35.14
2022-07-25T14:36:10.684Z,34.50
2022-07-25T14:38:38.822Z,34.42
2022-07-25T14:41:12.495Z,34.95
2022-07-25T14:43:41.521Z,34.06
2022-07-25T14:46:09.971Z,33.30
2022-07-25T14:48:40.233Z,33.70
2022-07-25T14:51:08.739Z,34.21
2022-07-25T14:53:37.340Z,34.19
2022-07-25T14:56:07.536Z,34.48
2022-07-25T14:58:36.224Z,34.40
2022-07-25T15:01:04.662Z,34.97
2022-07-25T15:03:32.893Z,35.39
2022-07-25T15:06:02.418Z,35.05
2022-07-25T15:08:30.773Z,35.07
2022-07-25T15:10:58.857Z,34.95
2022-07-25T15:13:31.882Z,34.72
2022-07-25T15:16:00.754Z,36.15
2022-07-25T15:18:29.265Z,36.67
2022-07-25T15:20:57.598Z,37.19
2022-07-25T15:23:30.315Z,37.56
2022-07-25T15:26:03.801Z,39.26
2022-07-25T15:28:33.797Z,40.24
2022-07-25T15:31:01.963Z,40.05
2022-07-25T15:33:30.392Z,39.86
2022-07-25T15:35:59.174Z,40.39
2022-07-25T15:38:30.712Z,40.00
2022-07-25T15:40:59.498Z,39.46
2022-07-25T15:43:28.207Z,39.07
2022-07-25T15:45:56.343Z,38.97
2022-07-25T15:48:24.928Z,38.94
2022-07-25T15:50:53.202Z,38.58
2022-07-25T15:53:21.334Z,38.34
2022-07-25T15:55:50.906Z,37.61
2022-07-25T15:58:18.997Z,37.43
2022-07-25T16:00:47.260Z,37.02
2022-07-25T16:03:15.722Z,36.54
2022-07-25T16:05:45.624Z,36.23
2022-07-25T16:08:14.327Z,36.17
2022-07-25T16:10:42.778Z,36.08
2022-07-25T16:13:12.207Z,35.22
2022-07-25T16:15:41.670Z,35.90
2022-07-25T16:18:09.819Z,36.28
2022-07-25T16:20:37.986Z,35.98
2022-07-25T16:23:06.103Z,35.79
2022-07-25T16:25:34.237Z,35.36
2022-07-25T16:28:02.376Z,35.50
2022-07-25T16:30:31.845Z,35.54
2022-07-25T16:33:00.313Z,35.98
2022-07-25T16:35:28.391Z,36.15
2022-07-25T16:37:56.446Z,36.33
2022-07-25T16:40:28.703Z,36.72
2022-07-25T16:42:59.598Z,36.91
2022-07-25T16:45:28.670Z,37.31
2022-07-25T16:47:58.356Z,36.49
2022-07-25T16:50:26.451Z,36.57
2022-07-25T16:52:54.849Z,36.86
2022-07-25T16:55:23.433Z,36.47
2022-07-25T16:57:51.569Z,37.34
2022-07-25T17:00:20.822Z,37.02
2022-07-25T17:02:49.648Z,37.28
2022-07-25T17:05:19.572Z,36.91
2022-07-25T17:07:57.028Z,36.95
2022-07-25T17:10:27.446Z,37.46
2022-07-25T17:12:55.647Z,37.84
2022-07-25T17:15:24.072Z,37.67
2022-07-25T17:17:52.243Z,38.29
2022-07-25T17:20:21.939Z,38.09
2022-07-25T17:22:50.056Z,37.82
2022-07-25T17:25:18.100Z,37.74
2022-07-25T17:27:46.294Z,38.06
2022-07-25T17:30:14.594Z,38.07
2022-07-25T17:32:42.694Z,38.33
2022-07-25T17:35:11.105Z,37.42
2022-07-25T17:37:42.356Z,37.24
2022-07-25T17:40:11.853Z,37.78
2022-07-25T17:42:45.063Z,37.22
2022-07-25T17:45:14.416Z,37.60
2022-07-25T17:47:43.451Z,37.92
2022-07-25T17:50:12.176Z,37.87
2022-07-25T17:52:41.657Z,37.56
2022-07-25T17:55:11.974Z,38.45
2022-07-25T17:57:43.062Z,38.36
2022-07-25T18:00:14.132Z,38.78
2022-07-25T18:02:42.574Z,38.71
2022-07-25T18:05:10.959Z,39.44
2022-07-25T18:07:45.118Z,38.80
2022-07-25T18:10:14.740Z,39.10
2022-07-25T18:12:43.037Z,38.60
2022-07-25T18:15:14.259Z,39.02
2022-07-25T18:17:43.745Z,39.18
2022-07-25T18:20:39.873Z,38.92
2022-07-25T18:23:09.492Z,38.84
2022-07-25T18:25:37.869Z,39.27
2022-07-25T18:28:06.984Z,39.55
2022-07-25T18:30:35.110Z,39.41
2022-07-25T18:33:03.183Z,38.61
2022-07-25T18:35:31.305Z,39.00
2022-07-25T18:37:59.452Z,38.90
2022-07-25T18:40:29.429Z,38.52
2022-07-25T18:42:57.523Z,38.43
2022-07-25T18:45:25.923Z,38.39
2022-07-25T18:47:55.133Z,38.96
2022-07-25T18:50:23.215Z,39.05
2022-07-25T18:52:51.263Z,38.74
2022-07-25T18:55:19.386Z,38.47
2022-07-25T18:57:48.956Z,38.91
2022-07-25T19:00:17.839Z,39.00
2022-07-25T19:02:46.505Z,39.22
2022-07-25T19:05:14.941Z,38.92
2022-07-25T19:07:43.384Z,38.86
2022-07-25T19:10:12.429Z,38.18
2022-07-25T19:12:40.662Z,38.14
2022-07-25T19:15:10.953Z,40.12
2022-07-25T19:17:39.461Z,39.40
2022-07-25T19:20:11.106Z,40.60
2022-07-25T19:22:39.382Z,39.93
2022-07-25T19:25:11.785Z,40.65
2022-07-25T19:27:41.146Z,40.34
2022-07-25T19:30:17.197Z,40.17
2022-07-25T19:32:47.137Z,40.23
2022-07-25T19:35:15.579Z,40.12
2022-07-25T19:37:43.669Z,40.62
2022-07-25T19:40:13.074Z,40.64
2022-07-25T19:42:42.529Z,40.10
2022-07-25T19:45:12.536Z,41.06
2022-07-25T19:47:40.631Z,40.88
2022-07-25T19:50:09.796Z,41.05
2022-07-25T19:52:38.210Z,40.33
2022-07-25T19:55:07.562Z,40.00
2022-07-25T19:57:38.686Z,40.78
2022-07-25T20:00:08.693Z,41.27
2022-07-25T20:02:41.709Z,41.32
2022-07-25T20:05:11.761Z,40.80
2022-07-25T20:07:43.184Z,42.19
2022-07-25T20:10:11.728Z,42.88
2022-07-25T20:12:41.485Z,42.14
2022-07-25T20:15:10.229Z,42.10
2022-07-25T20:17:39.689Z,41.84
2022-07-25T20:20:09.218Z,41.66
2022-07-25T20:22:38.420Z,41.29
2022-07-25T20:25:08.523Z,41.52
2022-07-25T20:27:42.108Z,41.82
2022-07-25T20:30:12.403Z,42.72
2022-07-25T20:32:41.896Z,42.18
2022-07-25T20:35:09.956Z,41.99
2022-07-25T20:37:38.196Z,42.30
2022-07-25T20:40:08.939Z,42.58
2022-07-25T20:42:38.180Z,41.80
2022-07-25T20:45:08.053Z,41.60
2022-07-25T20:47:36.130Z,41.56
2022-07-25T20:50:06.548Z,41.23
2022-07-25T20:52:34.648Z,41.10
2022-07-25T20:55:06.770Z,41.64
2022-07-25T20:57:35.477Z,41.82
2022-07-25T21:00:07.375Z,41.98
2022-07-25T21:02:38.916Z,41.91
2022-07-25T21:05:09.969Z,42.09
2022-07-25T21:07:38.036Z,41.85
2022-07-25T21:10:07.409Z,41.65
2022-07-25T21:12:35.613Z,42.11
2022-07-25T21:15:03.788Z,41.84
2022-07-25T21:17:31.853Z,41.93
2022-07-25T21:20:00.401Z,41.83
2022-07-25T21:22:30.816Z,41.92
2022-07-25T21:24:59.045Z,41.69
2022-07-25T21:27:27.136Z,41.63
2022-07-25T21:29:55.347Z,41.60
2022-07-25T21:32:23.508Z,42.14
2022-07-25T21:34:51.914Z,41.54
2022-07-25T21:37:20.008Z,41.78
2022-07-25T21:39:49.431Z,41.86
2022-07-25T21:42:17.816Z,41.74
2022-07-25T21:44:46.480Z,41.96
2022-07-25T21:47:14.630Z,41.76
2022-07-25T21:50:00.580Z,41.91
2022-07-25T21:52:31.334Z,41.95
2022-07-25T21:55:06.455Z,42.85
2022-07-25T21:57:35.984Z,42.99
2022-07-25T22:00:33.519Z,42.90
2022-07-25T22:03:26.752Z,42.99
2022-07-25T22:05:54.989Z,42.97
2022-07-25T22:08:23.092Z,42.80
2022-07-25T22:10:53.079Z,43.13
2022-07-25T22:13:21.364Z,43.27
2022-07-25T22:15:49.524Z,43.53
2022-07-25T22:18:17.621Z,43.64
2022-07-25T22:20:45.715Z,43.82
2022-07-25T22:23:13.771Z,43.87
2022-07-25T22:25:41.843Z,44.10
2022-07-25T22:28:14.226Z,43.68
2022-07-25T22:30:42.728Z,43.96
2022-07-25T22:33:10.774Z,44.07
2022-07-25T22:35:39.499Z,44.44
2022-07-25T22:38:09.042Z,44.82
2022-07-25T22:40:37.545Z,44.84
2022-07-25T22:43:05.635Z,45.19
2022-07-25T22:45:37.615Z,45.17
2022-07-25T22:48:08.278Z,45.45
2022-07-25T22:50:36.418Z,45.36
2022-07-25T22:53:04.611Z,45.54
2022-07-25T22:55:32.710Z,45.68
2022-07-25T22:58:00.829Z,45.65
2022-07-25T23:00:29.025Z,45.63
2022-07-25T23:02:58.612Z,46.09
2022-07-25T23:05:26.775Z,45.88
2022-07-25T23:07:54.977Z,46.43
2022-07-25T23:10:23.025Z,46.41
2022-07-25T23:12:51.068Z,46.26
2022-07-25T23:15:19.183Z,46.83
2022-07-25T23:17:47.201Z,47.05
2022-07-25T23:20:16.634Z,46.90
2022-07-25T23:22:46.561Z,46.90
2022-07-25T23:25:19.611Z,47.16
2022-07-25T23:27:47.764Z,47.23
2022-07-25T23:30:16.945Z,47.44
2022-07-25T23:32:45.110Z,47.71
2022-07-25T23:35:13.162Z,47.61
2022-07-25T23:37:42.802Z,47.24
2022-07-25T23:40:13.027Z,47.20
2022-07-25T23:42:41.137Z,47.41
2022-07-25T23:45:11.567Z,47.21
2022-07-25T23:47:40.721Z,47.35
2022-07-25T23:50:12.499Z,47.86
2022-07-25T23:52:42.187Z,48.16
2022-07-25T23:55:11.155Z,47.54
2022-07-25T23:57:39.207Z,47.47
